Time;durP1;ratioP1;P1;durP2;ratioP2;P2;SDS_P1;SDS_P2;PMS_P1;PMS_P2;Temp;Humidity;BMP_temperature;BMP_pressure;BME280_temperature;BME280_humidity;BME280_pressure;Samples;Min_cycle;Max_cycle;Signal;HPM_P1;HPM_P2
2022/09/22 00:00:13;;;;;;;;;;;;;;;10.68;67.61;102041.69;5064130;28;19928;-77
2022/09/22 00:02:39;;;;;;;;;;;;;;;10.58;67.44;102042.03;5062123;28;20582;-77
2022/09/22 00:05:07;;;;;;;;;;;;;;;10.56;67.47;102042.09;5061441;28;19929;-77
2022/09/22 00:07:34;;;;;;;;;;;;;;;10.53;67.86;102036.91;5063315;28;19932;-77
2022/09/22 00:10:00;;;;;;;;;;;;;;;10.58;67.75;102039.41;5061120;28;19955;-77
2022/09/22 00:12:26;;;;;;;;;;;;;;;10.50;67.38;102039.63;5059826;28;19936;-77
2022/09/22 00:14:53;;;;;;;;;;;;;;;10.50;67.18;102034.41;5062946;28;20373;-77
2022/09/22 00:17:19;;;;;;;;;;;;;;;10.61;67.87;102034.06;5061226;28;19929;-77
2022/09/22 00:19:45;;;;;;;;;;;;;;;10.51;68.46;102038.75;5061217;28;19986;-77
2022/09/22 00:22:13;;;;;;;;;;;;;;;10.31;68.59;102041.09;5064497;28;19986;-77
2022/09/22 00:24:41;;;;;;;;;;;;;;;10.39;68.42;102044.34;5060046;28;19974;-77
2022/09/22 00:27:08;;;;;;;;;;;;;;;10.38;68.30;102039.19;5060509;28;19932;-77
2022/09/22 00:29:35;;;;;;;;;;;;;;;10.43;67.84;102032.00;5063136;28;19978;-77
2022/09/22 00:32:01;;;;;;;;;;;;;;;10.39;67.70;102033.88;5062825;28;19939;-77
2022/09/22 00:34:27;;;;;;;;;;;;;;;10.40;67.30;102032.97;5060594;28;20377;-77
2022/09/22 00:36:55;;;;;;;;;;;;;;;10.29;67.00;102035.06;5066719;28;20317;-77
2022/09/22 00:39:22;;;;;;;;;;;;;;;10.16;68.18;102036.34;5064908;28;19933;-77
2022/09/22 00:41:50;;;;;;;;;;;;;;;9.95;69.58;102034.28;5066297;28;19930;-77
2022/09/22 00:44:28;;;;;;;;;;;;;;;9.85;70.60;102030.22;5066771;28;19928;-77
2022/09/22 00:46:56;;;;;;;;;;;;;;;9.76;71.23;102029.56;5065338;28;20007;-77
2022/09/22 00:49:29;;;;;;;;;;;;;;;9.81;71.89;102037.31;5065531;28;19974;-78
2022/09/22 00:51:55;;;;;;;;;;;;;;;9.72;72.02;102029.69;5064473;28;19970;-77
2022/09/22 00:54:23;;;;;;;;;;;;;;;9.71;71.68;102031.47;5063874;28;19928;-77
2022/09/22 00:56:53;;;;;;;;;;;;;;;9.64;71.38;102029.91;5066788;28;20537;-77
2022/09/22 00:59:21;;;;;;;;;;;;;;;9.49;72.00;102032.09;5064679;28;19974;-77
2022/09/22 01:01:47;;;;;;;;;;;;;;;9.51;71.40;102027.66;5066183;28;20348;-77
2022/09/22 01:04:15;;;;;;;;;;;;;;;9.47;71.51;102026.88;5064891;28;19946;-77
2022/09/22 01:06:42;;;;;;;;;;;;;;;9.15;73.30;102024.25;5065668;28;20011;-77
2022/09/22 01:09:08;;;;;;;;;;;;;;;9.47;72.99;102021.63;5064653;28;19928;-77
2022/09/22 01:11:37;;;;;;;;;;;;;;;9.79;71.96;102018.16;5066695;28;19936;-77
2022/09/22 01:14:08;;;;;;;;;;;;;;;9.93;71.72;102021.25;5065410;28;19935;-77
2022/09/22 01:16:42;;;;;;;;;;;;;;;9.90;71.17;102025.72;5065604;28;20338;-77
2022/09/22 01:19:31;;;;;;;;;;;;;;;9.56;71.65;102024.03;5061577;28;20426;-77
2022/09/22 01:22:03;;;;;;;;;;;;;;;9.68;70.75;102021.06;5064637;28;19928;-77
2022/09/22 01:24:47;;;;;;;;;;;;;;;9.72;69.91;102020.06;5063748;28;19929;-77
2022/09/22 01:27:41;;;;;;;;;;;;;;;9.39;70.85;102017.50;5063871;28;19975;-77
2022/09/22 01:30:18;;;;;;;;;;;;;;;9.41;71.28;102008.72;5061880;28;19985;-77
2022/09/22 01:32:48;;;;;;;;;;;;;;;9.28;71.97;102009.94;5063972;28;20414;-77
2022/09/22 01:35:18;;;;;;;;;;;;;;;8.97;73.84;102009.00;5066213;28;19932;-77
2022/09/22 01:37:49;;;;;;;;;;;;;;;8.52;77.60;102004.00;5065883;28;19989;-77
2022/09/22 01:40:19;;;;;;;;;;;;;;;8.66;78.25;101995.81;5063609;28;19932;-77
2022/09/22 01:42:49;;;;;;;;;;;;;;;8.93;75.83;102002.13;5065310;28;20049;-77
2022/09/22 01:45:17;;;;;;;;;;;;;;;8.44;78.86;101987.63;5068002;28;19932;-77
2022/09/22 01:47:46;;;;;;;;;;;;;;;8.48;78.30;101996.25;5065523;28;19931;-77
2022/09/22 01:50:15;;;;;;;;;;;;;;;8.67;77.11;101989.69;5082750;28;20459;-76
2022/09/22 01:52:42;;;;;;;;;;;;;;;8.96;75.84;101991.59;5066280;28;19978;-78
2022/09/22 01:55:11;;;;;;;;;;;;;;;9.09;74.62;101993.00;5065866;28;19928;-78
2022/09/22 01:57:43;;;;;;;;;;;;;;;9.25;73.53;101989.94;5064798;28;19950;-77
2022/09/22 02:00:10;;;;;;;;;;;;;;;9.40;72.44;101993.91;5064301;28;19925;-76
2022/09/22 02:02:40;;;;;;;;;;;;;;;9.57;71.52;101993.47;5068182;28;19924;-78
2022/09/22 02:05:10;;;;;;;;;;;;;;;9.65;70.99;101997.56;5067079;28;19924;-77
2022/09/22 02:07:39;;;;;;;;;;;;;;;9.62;70.38;101988.94;5065471;28;19924;-77
2022/09/22 02:10:08;;;;;;;;;;;;;;;9.56;70.67;101995.22;5065324;28;19925;-77
2022/09/22 02:12:35;;;;;;;;;;;;;;;9.57;70.75;101993.47;5065630;28;19925;-77
2022/09/22 02:15:01;;;;;;;;;;;;;;;9.45;71.02;101991.19;5064641;28;19947;-77
2022/09/22 02:17:28;;;;;;;;;;;;;;;9.48;71.22;101991.94;5063711;28;20482;-77
2022/09/22 02:19:55;;;;;;;;;;;;;;;9.58;70.76;101997.78;5065990;28;19958;-79
2022/09/22 02:22:22;;;;;;;;;;;;;;;9.50;70.74;101986.66;5065521;28;19986;-78
2022/09/22 02:24:48;;;;;;;;;;;;;;;9.55;70.64;101990.88;5066124;28;19925;-78
2022/09/22 02:27:19;;;;;;;;;;;;;;;9.58;69.62;101992.53;5067079;28;19929;-79
2022/09/22 02:29:48;;;;;;;;;;;;;;;9.49;69.10;101991.06;5063890;28;19944;-78
2022/09/22 02:32:15;;;;;;;;;;;;;;;9.49;68.67;101996.28;5065386;28;19925;-78
2022/09/22 02:34:42;;;;;;;;;;;;;;;9.52;68.86;101988.34;5066271;28;19934;-78
2022/09/22 02:37:16;;;;;;;;;;;;;;;9.50;68.89;101998.00;5067476;28;19928;-78
2022/09/22 02:39:46;;;;;;;;;;;;;;;9.42;68.80;101997.38;5063745;28;19932;-78
2022/09/22 02:42:18;;;;;;;;;;;;;;;9.28;68.06;101995.09;5064066;28;19932;-77
2022/09/22 02:44:47;;;;;;;;;;;;;;;9.31;68.37;101995.94;5074783;28;19924;-77
2022/09/22 02:47:17;;;;;;;;;;;;;;;9.29;68.84;101995.97;5070939;28;19924;-77
2022/09/22 02:49:43;;;;;;;;;;;;;;;9.36;68.63;101997.50;5065502;28;19924;-77
2022/09/22 02:52:12;;;;;;;;;;;;;;;9.22;69.00;101989.16;5064447;28;19925;-77
2022/09/22 02:54:39;;;;;;;;;;;;;;;9.34;68.28;101998.47;5065267;28;19924;-77
2022/09/22 02:57:05;;;;;;;;;;;;;;;9.32;68.64;101993.25;5079534;28;19936;-78
2022/09/22 02:59:31;;;;;;;;;;;;;;;9.36;68.81;101994.88;5064935;28;19978;-77
2022/09/22 03:01:58;;;;;;;;;;;;;;;9.25;69.80;101989.09;5067263;28;19928;-77
2022/09/22 03:04:24;;;;;;;;;;;;;;;9.19;70.18;101989.25;5065631;28;19947;-77
2022/09/22 03:06:50;;;;;;;;;;;;;;;9.06;70.55;101985.22;5063962;28;20280;-77
2022/09/22 03:09:18;;;;;;;;;;;;;;;9.00;69.95;101985.38;5063678;28;19982;-78
2022/09/22 03:11:44;;;;;;;;;;;;;;;8.93;69.86;101979.47;5059955;28;19974;-79
2022/09/22 03:14:10;;;;;;;;;;;;;;;8.51;71.89;101983.97;5065826;28;19947;-78
2022/09/22 03:16:37;;;;;;;;;;;;;;;8.50;72.96;101978.78;5066584;28;19925;-79
2022/09/22 03:19:03;;;;;;;;;;;;;;;8.58;72.95;101975.06;5070607;28;20457;-79
2022/09/22 03:21:29;;;;;;;;;;;;;;;8.27;74.46;101969.69;5070536;28;20629;-78
2022/09/22 03:23:56;;;;;;;;;;;;;;;8.48;74.53;101970.09;5068650;28;19970;-78
2022/09/22 03:26:24;;;;;;;;;;;;;;;8.67;74.19;101963.53;5067169;28;19925;-77
2022/09/22 03:28:50;;;;;;;;;;;;;;;8.93;73.20;101968.13;5059713;28;19924;-77
2022/09/22 03:31:16;;;;;;;;;;;;;;;9.01;72.59;101974.91;5068367;28;20358;-78
2022/09/22 03:33:42;;;;;;;;;;;;;;;9.12;71.85;101972.00;5066780;28;20018;-78
2022/09/22 03:36:09;;;;;;;;;;;;;;;9.09;71.75;101972.09;5067338;28;19950;-77
2022/09/22 03:38:35;;;;;;;;;;;;;;;8.98;72.17;101967.09;5067629;28;21540;-79
2022/09/22 03:41:01;;;;;;;;;;;;;;;9.11;72.38;101978.13;5065802;28;20314;-77
2022/09/22 03:43:29;;;;;;;;;;;;;;;9.21;72.44;101966.50;5065696;28;20334;-77
2022/09/22 03:45:56;;;;;;;;;;;;;;;9.41;71.60;101969.47;5065545;28;19925;-77
2022/09/22 03:48:23;;;;;;;;;;;;;;;9.65;70.77;101975.75;5063557;28;20508;-77
2022/09/22 03:50:49;;;;;;;;;;;;;;;9.61;71.26;101959.28;5064975;28;19924;-78
2022/09/22 03:53:15;;;;;;;;;;;;;;;9.12;73.62;101964.16;5067328;28;19929;-78
2022/09/22 03:55:42;;;;;;;;;;;;;;;9.09;74.38;101962.44;5060274;28;19928;-78
2022/09/22 03:58:08;;;;;;;;;;;;;;;9.12;74.46;101964.16;5064678;28;19955;-78
2022/09/22 04:00:35;;;;;;;;;;;;;;;8.88;75.86;101962.16;5063308;28;19924;-78
2022/09/22 04:03:02;;;;;;;;;;;;;;;8.47;78.10;101956.16;5064727;28;19924;-78
2022/09/22 04:05:28;;;;;;;;;;;;;;;7.81;81.49;101951.53;5068803;28;20450;-78
2022/09/22 04:07:54;;;;;;;;;;;;;;;8.04;81.00;101955.41;5068258;28;19924;-78
2022/09/22 04:10:21;;;;;;;;;;;;;;;8.84;78.25;101965.72;5067483;28;19932;-78
2022/09/22 04:12:47;;;;;;;;;;;;;;;9.25;76.37;101974.25;5082424;28;19928;-77
2022/09/22 04:15:13;;;;;;;;;;;;;;;9.27;74.88;101968.97;5086424;28;20328;-77
2022/09/22 04:17:41;;;;;;;;;;;;;;;8.57;77.79;101959.44;5067799;28;19925;-77
2022/09/22 04:20:10;;;;;;;;;;;;;;;8.83;77.38;101949.22;5067974;28;19924;-78
2022/09/22 04:22:36;;;;;;;;;;;;;;;8.97;76.51;101961.94;5051731;28;19924;-78
2022/09/22 04:25:02;;;;;;;;;;;;;;;9.29;75.25;101960.19;5065809;28;19928;-78
2022/09/22 04:27:29;;;;;;;;;;;;;;;9.50;73.95;101963.94;5069241;28;19925;-78
2022/09/22 04:29:56;;;;;;;;;;;;;;;9.33;74.53;101963.56;5067989;28;19932;-78
2022/09/22 04:32:22;;;;;;;;;;;;;;;9.34;74.24;101957.44;5066692;28;20403;-78
2022/09/22 04:34:50;;;;;;;;;;;;;;;9.19;74.25;101966.56;5068570;28;19978;-78
2022/09/22 04:37:16;;;;;;;;;;;;;;;8.64;76.90;101961.88;5067134;28;19929;-78
2022/09/22 04:39:42;;;;;;;;;;;;;;;9.08;75.78;101967.75;5062962;28;20073;-78
2022/09/22 04:42:09;;;;;;;;;;;;;;;9.40;73.92;101967.72;5069836;28;19931;-78
2022/09/22 04:44:35;;;;;;;;;;;;;;;9.31;74.28;101954.06;5068362;28;19924;-78
2022/09/22 04:47:01;;;;;;;;;;;;;;;9.45;73.69;101959.75;5068232;28;19985;-78
2022/09/22 04:49:27;;;;;;;;;;;;;;;9.40;73.25;101966.88;5068355;28;19924;-79
2022/09/22 04:51:55;;;;;;;;;;;;;;;9.12;73.54;101965.00;5068718;28;19928;-79
2022/09/22 04:54:21;;;;;;;;;;;;;;;9.46;72.58;101966.72;5067939;28;19925;-77
2022/09/22 04:56:47;;;;;;;;;;;;;;;9.15;72.94;101971.91;5047877;28;20636;-77
2022/09/22 04:59:14;;;;;;;;;;;;;;;9.13;74.00;101971.06;5050710;28;19928;-78
2022/09/22 05:01:40;;;;;;;;;;;;;;;9.27;72.82;101971.59;5079098;28;19977;-77
2022/09/22 05:04:06;;;;;;;;;;;;;;;9.09;73.30;101974.69;5067666;28;19970;-77
2022/09/22 05:06:32;;;;;;;;;;;;;;;9.34;73.16;101973.16;5067774;28;19962;-77
2022/09/22 05:09:01;;;;;;;;;;;;;;;9.50;72.59;101977.03;5067588;28;19986;-77
2022/09/22 05:11:29;;;;;;;;;;;;;;;9.46;73.45;101967.56;5071620;28;19982;-77
2022/09/22 05:13:56;;;;;;;;;;;;;;;9.55;73.86;101969.94;5067552;28;19974;-78
2022/09/22 05:16:22;;;;;;;;;;;;;;;9.71;73.13;101968.63;5068316;28;19984;-78
2022/09/22 05:18:49;;;;;;;;;;;;;;;9.75;73.25;101964.13;5064561;28;19932;-78
2022/09/22 05:21:15;;;;;;;;;;;;;;;9.66;73.62;101970.50;5068637;28;19947;-78
2022/09/22 05:23:42;;;;;;;;;;;;;;;9.55;74.51;101969.06;5075163;28;19925;-78
2022/09/22 05:26:09;;;;;;;;;;;;;;;10.03;73.85;101962.41;5071124;28;19973;-78
2022/09/22 05:28:36;;;;;;;;;;;;;;;9.96;73.89;101963.50;5076526;28;19932;-79
2022/09/22 05:31:03;;;;;;;;;;;;;;;10.02;74.08;101970.31;5074279;28;19928;-77
2022/09/22 05:33:29;;;;;;;;;;;;;;;10.39;73.65;101963.06;5085172;28;19985;-77
2022/09/22 05:35:55;;;;;;;;;;;;;;;10.60;73.06;101977.28;5085929;28;20341;-77
2022/09/22 05:38:22;;;;;;;;;;;;;;;10.65;73.34;101986.72;5084022;28;19925;-77
2022/09/22 05:40:48;;;;;;;;;;;;;;;10.69;73.03;101980.47;5063106;28;19925;-77
2022/09/22 05:43:16;;;;;;;;;;;;;;;10.89;73.06;101979.81;5057239;28;19929;-77
2022/09/22 05:45:42;;;;;;;;;;;;;;;10.81;72.84;101981.81;5066370;28;19978;-77
2022/09/22 05:48:08;;;;;;;;;;;;;;;10.65;73.75;101973.59;5070461;28;19932;-77
2022/09/22 05:50:35;;;;;;;;;;;;;;;10.70;73.74;101982.19;5067715;28;19924;-79
2022/09/22 05:53:02;;;;;;;;;;;;;;;10.44;74.69;101987.41;5067102;28;19932;-79
2022/09/22 05:55:28;;;;;;;;;;;;;;;10.45;75.26;101994.38;5066345;28;19931;-79
2022/09/22 05:57:56;;;;;;;;;;;;;;;10.41;75.96;101992.75;5066430;28;19931;-79
2022/09/22 06:00:23;;;;;;;;;;;;;;;10.60;75.13;101990.41;5067283;28;19924;-79
2022/09/22 06:02:49;;;;;;;;;;;;;;;10.55;75.85;101998.41;5065552;28;19935;-79
2022/09/22 06:05:16;;;;;;;;;;;;;;;10.66;75.09;101992.81;5066215;28;19929;-79
2022/09/22 06:07:42;;;;;;;;;;;;;;;10.98;74.26;101994.38;5066990;28;20277;-79
2022/09/22 06:10:10;;;;;;;;;;;;;;;10.87;74.42;101997.34;5063302;28;20339;-79
2022/09/22 06:12:36;;;;;;;;;;;;;;;11.16;74.24;102001.63;5063979;28;19924;-79
2022/09/22 06:15:03;;;;;;;;;;;;;;;11.23;73.66;101995.28;5066473;28;19990;-79
2022/09/22 06:17:30;;;;;;;;;;;;;;;11.28;74.22;102001.22;5065808;28;20347;-79
2022/09/22 06:19:59;;;;;;;;;;;;;;;11.43;74.14;102003.31;5064509;28;20308;-79
2022/09/22 06:22:26;;;;;;;;;;;;;;;11.47;74.05;101996.19;5068889;28;20007;-79
2022/09/22 06:24:52;;;;;;;;;;;;;;;11.65;74.04;101996.38;5065116;28;19925;-79
2022/09/22 06:27:18;;;;;;;;;;;;;;;11.77;73.75;102008.25;5066163;28;19924;-79
2022/09/22 06:29:44;;;;;;;;;;;;;;;11.76;73.78;101998.66;5067625;28;19990;-79
2022/09/22 06:32:11;;;;;;;;;;;;;;;11.83;73.52;102001.91;5085202;28;20407;-79
2022/09/22 06:34:38;;;;;;;;;;;;;;;11.88;73.51;102005.22;5087543;28;19924;-79
2022/09/22 06:37:07;;;;;;;;;;;;;;;11.59;73.33;101999.25;5085052;28;19924;-79
2022/09/22 06:39:36;;;;;;;;;;;;;;;11.64;73.27;101999.09;5085280;28;19924;-79
2022/09/22 06:42:03;;;;;;;;;;;;;;;11.86;72.99;101997.38;5086796;28;19924;-79
2022/09/22 06:44:30;;;;;;;;;;;;;;;11.99;73.35;102003.91;5072701;28;19928;-79
2022/09/22 06:46:56;;;;;;;;;;;;;;;12.11;72.66;102002.59;5066903;28;20011;-76
2022/09/22 06:49:22;;;;;;;;;;;;;;;12.26;72.09;102002.03;5068844;28;19928;-76
2022/09/22 06:51:50;;;;;;;;;;;;;;;12.01;71.82;101999.44;5079644;28;19978;-76
2022/09/22 06:54:16;;;;;;;;;;;;;;;11.95;72.78;102002.31;5062691;28;19978;-76
2022/09/22 06:56:43;;;;;;;;;;;;;;;12.28;71.52;102009.81;5076680;28;19924;-76
2022/09/22 06:59:13;;;;;;;;;;;;;;;12.49;71.81;102009.03;5085932;28;19932;-76
2022/09/22 07:01:40;;;;;;;;;;;;;;;12.42;71.31;102003.13;5073016;28;20013;-76
2022/09/22 07:04:06;;;;;;;;;;;;;;;12.49;70.88;102004.59;5064104;28;19946;-76
2022/09/22 07:06:33;;;;;;;;;;;;;;;12.61;69.99;102014.63;5066422;28;19925;-76
2022/09/22 07:09:00;;;;;;;;;;;;;;;12.51;70.53;102010.66;5063575;28;19935;-78
2022/09/22 07:11:27;;;;;;;;;;;;;;;12.86;69.85;102009.22;5064851;28;19955;-77
2022/09/22 07:13:53;;;;;;;;;;;;;;;13.07;69.96;102007.50;5065755;28;19925;-77
2022/09/22 07:16:21;;;;;;;;;;;;;;;13.06;70.11;102000.50;5064486;28;19924;-79
2022/09/22 07:18:48;;;;;;;;;;;;;;;13.10;71.20;102012.66;5059081;28;19924;-79
2022/09/22 07:21:16;;;;;;;;;;;;;;;13.40;70.42;102011.38;5054047;28;19925;-78
2022/09/22 07:23:43;;;;;;;;;;;;;;;13.59;70.05;102004.38;5063575;28;19958;-78
2022/09/22 07:26:12;;;;;;;;;;;;;;;13.57;69.53;102008.84;5065676;28;19978;-78
2022/09/22 07:28:39;;;;;;;;;;;;;;;13.69;69.54;102012.72;5064875;28;19929;-78
2022/09/22 07:31:07;;;;;;;;;;;;;;;13.74;68.55;102009.88;5067752;28;19924;-78
2022/09/22 07:33:33;;;;;;;;;;;;;;;14.00;70.36;102009.56;5075562;28;19924;-78
2022/09/22 07:36:01;;;;;;;;;;;;;;;14.16;69.62;102002.63;5085636;28;19928;-78
2022/09/22 07:38:31;;;;;;;;;;;;;;;14.21;67.62;102005.06;5083834;28;19924;-78
2022/09/22 07:40:58;;;;;;;;;;;;;;;14.05;67.99;101995.22;5070890;28;19955;-78
2022/09/22 07:43:26;;;;;;;;;;;;;;;14.21;68.61;102005.06;5062588;28;20558;-78
2022/09/22 07:45:54;;;;;;;;;;;;;;;14.45;66.71;102009.22;5070722;28;20431;-78
2022/09/22 07:48:36;;;;;;;;;;;;;;;14.88;68.01;102005.34;5068634;28;19995;-78
2022/09/22 07:51:02;;;;;;;;;;;;;;;15.02;67.03;102010.81;5052790;28;19924;-78
2022/09/22 07:53:30;;;;;;;;;;;;;;;15.26;68.32;102012.19;5075636;28;20349;-78
2022/09/22 07:56:01;;;;;;;;;;;;;;;15.55;67.33;102006.31;5073676;28;20022;-79
2022/09/22 07:58:29;;;;;;;;;;;;;;;15.70;66.70;102009.94;5074174;28;19925;-80
2022/09/22 08:00:55;;;;;;;;;;;;;;;15.93;64.61;102011.34;5058562;28;19956;-80
2022/09/22 08:03:22;;;;;;;;;;;;;;;15.79;64.62;102008.59;5078325;28;20342;-80
2022/09/22 08:05:51;;;;;;;;;;;;;;;16.13;67.30;102008.47;5080952;28;19924;-78
2022/09/22 08:08:17;;;;;;;;;;;;;;;16.41;63.39;102013.94;5069639;28;19924;-78
2022/09/22 08:10:43;;;;;;;;;;;;;;;16.75;64.23;102010.28;5089229;28;19927;-78
2022/09/22 08:13:10;;;;;;;;;;;;;;;17.10;63.47;102018.00;5087919;28;19928;-78
2022/09/22 08:15:41;;;;;;;;;;;;;;;17.50;61.88;102020.84;5078719;28;19932;-78
2022/09/22 08:18:07;;;;;;;;;;;;;;;18.24;60.17;102004.75;5068386;28;20023;-77
2022/09/22 08:20:33;;;;;;;;;;;;;;;18.74;56.98;102008.59;5068034;28;19929;-77
2022/09/22 08:23:01;;;;;;;;;;;;;;;18.61;60.95;102000.59;5065332;28;19978;-77
2022/09/22 08:25:28;;;;;;;;;;;;;;;20.24;57.96;101993.72;5066223;28;20425;-76
2022/09/22 08:27:54;;;;;;;;;;;;;;;21.37;55.19;102002.13;5081910;28;19924;-76
2022/09/22 08:30:20;;;;;;;;;;;;;;;21.99;52.35;101988.41;5086550;28;19928;-75
2022/09/22 08:32:48;;;;;;;;;;;;;;;21.99;50.26;101991.06;5071437;28;19928;-76
2022/09/22 08:35:14;;;;;;;;;;;;;;;21.71;50.04;101995.88;5067711;28;19973;-76
2022/09/22 08:37:42;;;;;;;;;;;;;;;21.67;47.24;101996.22;5066841;28;20311;-75
2022/09/22 08:40:15;;;;;;;;;;;;;;;20.71;49.61;101998.25;5065676;28;20027;-76
2022/09/22 08:42:44;;;;;;;;;;;;;;;20.77;50.60;101994.25;5068506;28;19925;-76
2022/09/22 08:45:17;;;;;;;;;;;;;;;20.22;50.54;101997.44;5073282;28;20332;-76
2022/09/22 08:53:34;;;;;;;;;;;;;;;19.56;49.70;101985.28;4987474;28;19937;-77
2022/09/22 08:56:05;;;;;;;;;;;;;;;19.55;52.01;101996.06;5060171;28;20461;-77
2022/09/22 08:58:40;;;;;;;;;;;;;;;19.56;49.13;101993.28;5079415;28;20013;-77
2022/09/22 09:01:13;;;;;;;;;;;;;;;19.59;50.18;101994.84;5067679;28;19954;-78
2022/09/22 09:03:47;;;;;;;;;;;;;;;19.66;49.23;101993.50;5076590;28;20010;-77
2022/09/22 09:06:20;;;;;;;;;;;;;;;19.90;51.12;101987.28;5084196;28;19955;-78
2022/09/22 09:09:04;;;;;;;;;;;;;;;20.11;50.52;101992.03;5086315;28;20371;-75
2022/09/22 09:11:39;;;;;;;;;;;;;;;19.71;49.61;101986.03;5088249;28;19924;-74
2022/09/22 09:14:14;;;;;;;;;;;;;;;19.06;49.52;101991.41;5082897;28;20437;-74
2022/09/22 09:16:44;;;;;;;;;;;;;;;19.40;52.59;101985.47;5067863;28;19937;-74
2022/09/22 09:19:14;;;;;;;;;;;;;;;19.72;52.19;101998.38;5074466;28;19977;-73
2022/09/22 09:21:45;;;;;;;;;;;;;;;20.23;51.05;101988.50;5069559;28;19925;-74
2022/09/22 09:24:15;;;;;;;;;;;;;;;20.63;49.61;101986.44;5069867;28;19924;-73
2022/09/22 09:26:41;;;;;;;;;;;;;;;20.44;46.79;101988.75;5069689;28;20373;-73
2022/09/22 09:29:13;;;;;;;;;;;;;;;20.04;47.47;101986.28;5066348;28;19982;-73
2022/09/22 09:31:41;;;;;;;;;;;;;;;20.53;47.17;101985.44;5066075;28;19924;-73
2022/09/22 09:34:10;;;;;;;;;;;;;;;20.69;46.65;101996.66;5068327;28;19924;-73
2022/09/22 09:36:40;;;;;;;;;;;;;;;21.16;48.38;101991.31;5067493;28;19985;-73
2022/09/22 09:39:12;;;;;;;;;;;;;;;21.06;46.14;101992.09;5052801;28;19948;-73
2022/09/22 09:41:40;;;;;;;;;;;;;;;21.39;42.55;102002.03;5065580;28;19924;-73
2022/09/22 09:44:07;;;;;;;;;;;;;;;20.77;43.86;101991.59;5068553;28;19932;-74
2022/09/22 09:46:40;;;;;;;;;;;;;;;20.55;45.39;101988.81;5066924;28;19924;-73
2022/09/22 09:49:08;;;;;;;;;;;;;;;20.09;44.98;101985.97;5066103;28;19928;-73
2022/09/22 09:51:36;;;;;;;;;;;;;;;20.47;43.61;101993.88;5058854;28;20376;-73
2022/09/22 09:54:05;;;;;;;;;;;;;;;20.40;45.74;101994.31;5068440;28;19929;-73
2022/09/22 09:56:35;;;;;;;;;;;;;;;20.75;43.29;101989.06;5066394;28;19933;-74
2022/09/22 10:01:47;;;;;;;;;;;;;;;20.72;45.52;101986.63;5068390;28;19935;-73
2022/09/22 10:04:17;;;;;;;;;;;;;;;20.99;44.29;101986.34;5067873;28;19925;-73
2022/09/22 10:06:44;;;;;;;;;;;;;;;20.41;43.61;101984.50;5069575;28;20003;-73
2022/09/22 10:09:11;;;;;;;;;;;;;;;20.81;45.30;101985.06;5068526;28;19938;-74
2022/09/22 10:11:38;;;;;;;;;;;;;;;21.20;44.86;101983.91;5066692;28;19928;-73
2022/09/22 10:14:07;;;;;;;;;;;;;;;21.36;42.63;101971.94;5068396;28;19982;-73
2022/09/22 10:16:35;;;;;;;;;;;;;;;21.48;42.73;101978.13;5069402;28;19933;-73
2022/09/22 10:19:17;;;;;;;;;;;;;;;21.85;42.20;101973.41;5055831;28;19925;-73
2022/09/22 10:21:43;;;;;;;;;;;;;;;21.97;42.56;101975.16;5063923;28;19925;-73
2022/09/22 10:24:24;;;;;;;;;;;;;;;22.05;42.01;101972.72;5067352;28;19946;-74
2022/09/22 10:26:54;;;;;;;;;;;;;;;22.35;41.73;101971.22;5050107;28;19943;-74
2022/09/22 10:29:21;;;;;;;;;;;;;;;22.66;44.35;101965.88;5064364;28;20376;-73
2022/09/22 10:32:00;;;;;;;;;;;;;;;23.50;42.18;101972.16;5067621;28;21260;-73
2022/09/22 10:34:30;;;;;;;;;;;;;;;23.62;38.65;101969.25;5068265;28;20359;-73
2022/09/22 10:36:57;;;;;;;;;;;;;;;23.95;36.60;101962.75;5067246;28;20004;-74
2022/09/22 10:39:29;;;;;;;;;;;;;;;24.42;38.25;101963.06;5065643;28;19925;-73
2022/09/22 10:41:57;;;;;;;;;;;;;;;24.91;36.82;101962.94;5063154;28;19990;-73
2022/09/22 10:44:24;;;;;;;;;;;;;;;24.70;33.64;101962.22;5066228;28;19933;-73
2022/09/22 10:46:56;;;;;;;;;;;;;;;24.24;33.14;101950.31;5065359;28;20376;-73
2022/09/22 10:49:30;;;;;;;;;;;;;;;23.87;36.29;101954.59;5052256;28;20304;-73
2022/09/22 10:52:04;;;;;;;;;;;;;;;22.63;35.40;101954.59;5045972;28;19983;-73
2022/09/22 10:54:45;;;;;;;;;;;;;;;22.88;36.74;101964.94;5066512;28;19977;-73
2022/09/22 10:57:17;;;;;;;;;;;;;;;23.48;40.91;101958.06;5039317;28;19973;-73
2022/09/22 10:59:54;;;;;;;;;;;;;;;24.16;37.89;101954.69;5066980;28;20441;-73
2022/09/22 11:02:44;;;;;;;;;;;;;;;24.62;40.51;101962.06;5079191;28;19925;-73
2022/09/22 11:12:15;;;;;;;;;;;;;;;25.11;36.92;101948.53;5014478;28;19929;-73
2022/09/22 11:13:56;;;;;;;;;;;;;;;23.76;34.07;101946.66;5057788;28;19932;-73
2022/09/22 11:16:33;;;;;;;;;;;;;;;24.03;31.60;101937.97;5060432;28;19931;-73
2022/09/22 11:19:12;;;;;;;;;;;;;;;24.28;34.54;101940.16;5060386;28;19932;-74
2022/09/22 11:21:45;;;;;;;;;;;;;;;23.96;33.22;101937.69;5065705;28;19932;-73
2022/09/22 11:24:20;;;;;;;;;;;;;;;23.75;34.48;101932.41;5064318;28;19925;-73
2022/09/22 11:26:48;;;;;;;;;;;;;;;23.99;32.75;101925.81;5065309;28;19936;-73
2022/09/22 11:29:32;;;;;;;;;;;;;;;24.36;32.95;101934.09;5064859;28;19956;-73
2022/09/22 11:32:06;;;;;;;;;;;;;;;23.59;29.94;101933.88;5065696;28;19952;-73
2022/09/22 11:34:45;;;;;;;;;;;;;;;23.47;34.39;101922.41;5062874;28;19928;-73
2022/09/22 11:37:25;;;;;;;;;;;;;;;23.65;31.82;101917.28;5064116;28;19924;-73
2022/09/22 11:39:58;;;;;;;;;;;;;;;24.23;27.31;101919.16;5063983;28;19925;-73
2022/09/22 11:42:28;;;;;;;;;;;;;;;24.10;29.68;101912.31;5064153;28;19928;-73
2022/09/22 11:45:02;;;;;;;;;;;;;;;24.64;32.93;101911.84;5065766;28;19924;-73
2022/09/22 11:47:36;;;;;;;;;;;;;;;24.49;29.50;101910.56;5064610;28;19924;-73
2022/09/22 11:50:11;;;;;;;;;;;;;;;24.11;27.95;101908.66;5064372;28;20288;-73
2022/09/22 11:52:47;;;;;;;;;;;;;;;23.71;30.57;101898.00;5063567;28;19925;-73
2022/09/22 11:55:18;;;;;;;;;;;;;;;23.94;30.88;101902.16;5065016;28;19924;-73
2022/09/22 11:57:46;;;;;;;;;;;;;;;24.14;29.80;101903.91;5052723;28;19925;-73
2022/09/22 12:00:16;;;;;;;;;;;;;;;24.17;35.25;101894.72;5052241;28;19924;-73
2022/09/22 12:02:46;;;;;;;;;;;;;;;23.52;32.07;101897.91;5087295;28;19924;-73
2022/09/22 12:05:15;;;;;;;;;;;;;;;23.10;32.38;101889.06;5082783;28;19930;-73
2022/09/22 12:07:44;;;;;;;;;;;;;;;23.58;34.14;101882.16;5084230;28;20279;-72
2022/09/22 12:10:16;;;;;;;;;;;;;;;23.56;31.60;101885.94;5077270;28;19931;-73
2022/09/22 12:12:43;;;;;;;;;;;;;;;23.68;35.48;101885.72;5062151;28;19924;-72
2022/09/22 12:15:22;;;;;;;;;;;;;;;24.11;33.44;101877.34;5062631;28;19932;-72
2022/09/22 12:17:53;;;;;;;;;;;;;;;24.61;32.23;101870.03;5054875;28;20550;-72
2022/09/22 12:20:28;;;;;;;;;;;;;;;24.92;32.90;101868.06;5064415;28;20005;-72
2022/09/22 12:23:05;;;;;;;;;;;;;;;24.81;32.76;101876.22;5062744;28;20434;-73
2022/09/22 12:25:45;;;;;;;;;;;;;;;24.77;33.45;101869.47;5065093;28;20303;-73
2022/09/22 12:28:15;;;;;;;;;;;;;;;24.30;32.01;101868.50;5068491;28;19977;-73
2022/09/22 12:30:51;;;;;;;;;;;;;;;24.44;34.95;101862.72;5067221;28;20299;-73
2022/09/22 12:33:18;;;;;;;;;;;;;;;24.37;33.54;101868.78;5066393;28;19925;-72
2022/09/22 12:35:51;;;;;;;;;;;;;;;24.09;35.78;101865.91;5080902;28;19925;-72
2022/09/22 12:38:20;;;;;;;;;;;;;;;24.54;33.13;101860.03;5068463;28;19941;-73
2022/09/22 12:40:48;;;;;;;;;;;;;;;24.89;33.23;101854.94;5065894;28;19998;-72
2022/09/22 12:43:18;;;;;;;;;;;;;;;24.66;34.15;101858.88;5067022;28;20019;-72
2022/09/22 12:45:44;;;;;;;;;;;;;;;23.82;30.33;101852.34;5067746;28;19932;-72
2022/09/22 12:48:13;;;;;;;;;;;;;;;23.90;31.40;101851.66;5066480;28;20319;-73
2022/09/22 12:50:42;;;;;;;;;;;;;;;24.09;29.03;101855.19;5066758;28;19974;-72
2022/09/22 12:53:23;;;;;;;;;;;;;;;24.24;30.17;101856.50;5067864;28;19935;-72
2022/09/22 12:55:49;;;;;;;;;;;;;;;22.92;30.91;101840.69;5062440;28;19924;-73
2022/09/22 12:58:35;;;;;;;;;;;;;;;22.54;31.89;101851.13;5066732;28;19936;-73
2022/09/22 13:01:16;;;;;;;;;;;;;;;22.99;32.57;101844.53;5067275;28;20380;-73
2022/09/22 13:03:49;;;;;;;;;;;;;;;23.44;32.64;101844.19;5069567;28;19931;-73